sensor_id;sensor_type;location;lat;lon;timestamp;pressure;altitude;pressure_sealevel;temperature;humidity
25130;BME280;13308;50.860;13.664;2023-08-12T05:29:46;97129.72;;;18.76;100.00
25130;BME280;13308;50.860;13.664;2023-08-12T05:32:11;97120.09;;;18.95;100.00
25130;BME280;13308;50.860;13.664;2023-08-12T05:34:37;97123.03;;;19.09;100.00
25130;BME280;13308;50.860;13.664;2023-08-12T05:37:02;97114.03;;;19.33;99.78
25130;BME280;13308;50.860;13.664;2023-08-12T05:39:27;97125.94;;;19.51;99.83
25130;BME280;13308;50.860;13.664;2023-08-12T05:41:53;97122.47;;;19.74;97.80
25130;BME280;13308;50.860;13.664;2023-08-12T05:44:18;97123.66;;;19.91;96.52
25130;BME280;13308;50.860;13.664;2023-08-12T05:46:43;97121.44;;;20.13;93.69
25130;BME280;13308;50.860;13.664;2023-08-12T05:49:09;97117.03;;;20.21;93.29
25130;BME280;13308;50.860;13.664;2023-08-12T05:51:34;97122.69;;;20.35;93.81
25130;BME280;13308;50.860;13.664;2023-08-12T05:54:00;97125.53;;;20.59;93.30
25130;BME280;13308;50.860;13.664;2023-08-12T05:56:25;97117.56;;;20.81;91.45
25130;BME280;13308;50.860;13.664;2023-08-12T05:58:50;97119.84;;;20.91;91.18
25130;BME280;13308;50.860;13.664;2023-08-12T06:01:16;97120.78;;;21.12;90.48
25130;BME280;13308;50.860;13.664;2023-08-12T06:03:42;97124.03;;;21.34;90.23
25130;BME280;13308;50.860;13.664;2023-08-12T06:06:07;97114.59;;;21.75;87.65
25130;BME280;13308;50.860;13.664;2023-08-12T06:08:33;97119.94;;;22.22;82.42
25130;BME280;13308;50.860;13.664;2023-08-12T06:10:58;97120.19;;;22.53;80.75
25130;BME280;13308;50.860;13.664;2023-08-12T06:13:23;97115.34;;;22.93;77.36
25130;BME280;13308;50.860;13.664;2023-08-12T06:15:49;97124.47;;;23.28;74.08
25130;BME280;13308;50.860;13.664;2023-08-12T06:18:14;97127.66;;;23.36;75.29
25130;BME280;13308;50.860;13.664;2023-08-12T06:20:40;97124.28;;;23.57;73.57
25130;BME280;13308;50.860;13.664;2023-08-12T06:23:05;97118.81;;;23.74;72.17
25130;BME280;13308;50.860;13.664;2023-08-12T06:25:30;97122.56;;;23.91;71.39
25130;BME280;13308;50.860;13.664;2023-08-12T06:27:56;97115.25;;;24.04;70.60
25130;BME280;13308;50.860;13.664;2023-08-12T06:30:23;97117.03;;;24.02;70.47
25130;BME280;13308;50.860;13.664;2023-08-12T06:32:49;97123.59;;;23.88;70.77
25130;BME280;13308;50.860;13.664;2023-08-12T06:35:14;97120.09;;;23.98;70.37
25130;BME280;13308;50.860;13.664;2023-08-12T06:37:40;97114.09;;;24.22;70.04
25130;BME280;13308;50.860;13.664;2023-08-12T06:40:06;97122.84;;;24.24;72.23
25130;BME280;13308;50.860;13.664;2023-08-12T06:42:31;97114.56;;;24.88;67.79
25130;BME280;13308;50.860;13.664;2023-08-12T06:44:58;97118.66;;;25.62;64.61
25130;BME280;13308;50.860;13.664;2023-08-12T06:47:23;97118.50;;;26.15;61.96
25130;BME280;13308;50.860;13.664;2023-08-12T06:49:49;97120.19;;;26.84;58.82
25130;BME280;13308;50.860;13.664;2023-08-12T06:52:14;97127.16;;;27.51;56.81
25130;BME280;13308;50.860;13.664;2023-08-12T06:54:41;97116.72;;;27.29;58.33
25130;BME280;13308;50.860;13.664;2023-08-12T06:57:06;97116.00;;;27.64;56.59
25130;BME280;13308;50.860;13.664;2023-08-12T06:59:31;97115.75;;;28.37;53.57
25130;BME280;13308;50.860;13.664;2023-08-12T07:01:57;97123.88;;;28.76;54.76
25130;BME280;13308;50.860;13.664;2023-08-12T07:04:22;97125.19;;;29.23;51.31
25130;BME280;13308;50.860;13.664;2023-08-12T07:06:48;97119.84;;;28.66;51.53
25130;BME280;13308;50.860;13.664;2023-08-12T07:09:13;97117.59;;;28.83;52.69
25130;BME280;13308;50.860;13.664;2023-08-12T07:11:38;97121.78;;;29.24;51.60
25130;BME280;13308;50.860;13.664;2023-08-12T07:14:04;97123.19;;;30.42;49.29
25130;BME280;13308;50.860;13.664;2023-08-12T07:16:29;97126.16;;;31.07;47.14
25130;BME280;13308;50.860;13.664;2023-08-12T07:18:55;97132.25;;;31.76;45.97
25130;BME280;13308;50.860;13.664;2023-08-12T07:21:20;97127.47;;;30.61;49.42
25130;BME280;13308;50.860;13.664;2023-08-12T07:23:45;97130.31;;;30.17;49.08
25130;BME280;13308;50.860;13.664;2023-08-12T07:26:11;97138.22;;;31.39;48.08
25130;BME280;13308;50.860;13.664;2023-08-12T07:28:36;97150.91;;;32.64;44.35
25130;BME280;13308;50.860;13.664;2023-08-12T07:31:01;97146.47;;;33.32;43.15
25130;BME280;13308;50.860;13.664;2023-08-12T07:33:27;97134.06;;;32.20;45.52
25130;BME280;13308;50.860;13.664;2023-08-12T07:35:52;97132.63;;;31.93;44.73
25130;BME280;13308;50.860;13.664;2023-08-12T07:38:17;97121.00;;;31.91;44.53
25130;BME280;13308;50.860;13.664;2023-08-12T07:40:43;97126.09;;;32.39;44.40
25130;BME280;13308;50.860;13.664;2023-08-12T07:43:08;97126.50;;;32.43;44.50
25130;BME280;13308;50.860;13.664;2023-08-12T07:45:33;97122.69;;;31.73;45.36
25130;BME280;13308;50.860;13.664;2023-08-12T07:47:59;97119.94;;;31.68;43.95
25130;BME280;13308;50.860;13.664;2023-08-12T07:50:24;97126.31;;;31.74;43.17
25130;BME280;13308;50.860;13.664;2023-08-12T07:52:49;97122.84;;;31.42;42.93
25130;BME280;13308;50.860;13.664;2023-08-12T07:55:15;97111.53;;;30.27;45.54
25130;BME280;13308;50.860;13.664;2023-08-12T07:57:41;97119.88;;;31.08;44.35
25130;BME280;13308;50.860;13.664;2023-08-12T08:00:07;97106.63;;;30.85;45.32
25130;BME280;13308;50.860;13.664;2023-08-12T08:02:33;97112.59;;;31.72;44.23
25130;BME280;13308;50.860;13.664;2023-08-12T08:04:58;97102.50;;;32.05;41.67
25130;BME280;13308;50.860;13.664;2023-08-12T08:07:24;97100.09;;;31.62;41.51
25130;BME280;13308;50.860;13.664;2023-08-12T08:09:50;97107.13;;;31.61;42.16
25130;BME280;13308;50.860;13.664;2023-08-12T08:12:16;97106.41;;;31.09;42.65
25130;BME280;13308;50.860;13.664;2023-08-12T08:14:42;97099.63;;;30.41;44.12
25130;BME280;13308;50.860;13.664;2023-08-12T08:17:07;97103.13;;;30.92;42.89
25130;BME280;13308;50.860;13.664;2023-08-12T08:19:35;97095.91;;;30.46;43.95
25130;BME280;13308;50.860;13.664;2023-08-12T08:22:01;97105.84;;;30.71;43.78
25130;BME280;13308;50.860;13.664;2023-08-12T08:24:26;97096.94;;;29.99;45.77
25130;BME280;13308;50.860;13.664;2023-08-12T08:26:52;97107.19;;;30.39;43.88
25130;BME280;13308;50.860;13.664;2023-08-12T08:29:17;97093.59;;;30.32;44.82
25130;BME280;13308;50.860;13.664;2023-08-12T08:31:42;97102.84;;;29.88;46.00
25130;BME280;13308;50.860;13.664;2023-08-12T08:34:08;97103.72;;;29.96;45.42
25130;BME280;13308;50.860;13.664;2023-08-12T08:36:35;97104.94;;;30.19;44.38
25130;BME280;13308;50.860;13.664;2023-08-12T08:39:00;97106.69;;;29.72;45.37
25130;BME280;13308;50.860;13.664;2023-08-12T08:41:27;97103.56;;;30.07;44.99
25130;BME280;13308;50.860;13.664;2023-08-12T08:43:55;97104.53;;;29.78;45.79
25130;BME280;13308;50.860;13.664;2023-08-12T08:46:26;97100.25;;;29.53;44.74
25130;BME280;13308;50.860;13.664;2023-08-12T08:48:51;97101.13;;;29.24;45.62
25130;BME280;13308;50.860;13.664;2023-08-12T08:51:18;97098.22;;;29.48;45.66
25130;BME280;13308;50.860;13.664;2023-08-12T08:53:44;97108.66;;;29.40;46.17
25130;BME280;13308;50.860;13.664;2023-08-12T08:56:09;97099.19;;;29.13;46.51
25130;BME280;13308;50.860;13.664;2023-08-12T08:58:38;97094.59;;;29.29;45.46
25130;BME280;13308;50.860;13.664;2023-08-12T09:01:07;97088.22;;;29.41;45.57
25130;BME280;13308;50.860;13.664;2023-08-12T09:03:37;97097.59;;;28.94;47.55
25130;BME280;13308;50.860;13.664;2023-08-12T09:06:03;97103.03;;;28.44;48.50
25130;BME280;13308;50.860;13.664;2023-08-12T09:08:31;97092.75;;;28.89;47.23
25130;BME280;13308;50.860;13.664;2023-08-12T09:10:57;97107.59;;;29.43;47.28
25130;BME280;13308;50.860;13.664;2023-08-12T09:13:24;97106.13;;;29.18;46.26
25130;BME280;13308;50.860;13.664;2023-08-12T09:15:49;97106.28;;;29.81;44.82
25130;BME280;13308;50.860;13.664;2023-08-12T09:18:16;97102.31;;;30.02;45.93
25130;BME280;13308;50.860;13.664;2023-08-12T09:20:41;97098.56;;;30.13;44.48
25130;BME280;13308;50.860;13.664;2023-08-12T09:23:08;97098.16;;;30.66;44.72
25130;BME280;13308;50.860;13.664;2023-08-12T09:25:35;97098.59;;;30.26;43.89
25130;BME280;13308;50.860;13.664;2023-08-12T09:28:01;97095.00;;;31.09;45.07
25130;BME280;13308;50.860;13.664;2023-08-12T09:30:28;97096.97;;;31.14;43.68
25130;BME280;13308;50.860;13.664;2023-08-12T09:33:02;97095.97;;;30.28;45.61
25130;BME280;13308;50.860;13.664;2023-08-12T09:35:41;97087.56;;;30.04;44.69
25130;BME280;13308;50.860;13.664;2023-08-12T09:38:11;97078.47;;;29.74;45.46
25130;BME280;13308;50.860;13.664;2023-08-12T09:40:37;97082.09;;;30.06;45.04
25130;BME280;13308;50.860;13.664;2023-08-12T09:43:03;97085.63;;;29.80;44.71
25130;BME280;13308;50.860;13.664;2023-08-12T09:45:30;97076.09;;;29.78;46.35
25130;BME280;13308;50.860;13.664;2023-08-12T09:47:56;97075.34;;;29.59;45.82
25130;BME280;13308;50.860;13.664;2023-08-12T09:50:23;97072.25;;;29.57;47.52
25130;BME280;13308;50.860;13.664;2023-08-12T09:52:50;97065.72;;;29.25;46.68
25130;BME280;13308;50.860;13.664;2023-08-12T09:55:17;97071.03;;;29.71;46.42
25130;BME280;13308;50.860;13.664;2023-08-12T09:57:43;97076.16;;;29.35;48.48
25130;BME280;13308;50.860;13.664;2023-08-12T10:00:10;97073.75;;;29.21;47.71
25130;BME280;13308;50.860;13.664;2023-08-12T10:02:46;97076.00;;;28.85;48.10
25130;BME280;13308;50.860;13.664;2023-08-12T10:05:15;97073.06;;;29.15;48.21
25130;BME280;13308;50.860;13.664;2023-08-12T10:07:42;97083.28;;;29.23;46.94
25130;BME280;13308;50.860;13.664;2023-08-12T10:10:09;97072.22;;;29.20;47.01
25130;BME280;13308;50.860;13.664;2023-08-12T10:12:35;97083.13;;;28.97;48.28
25130;BME280;13308;50.860;13.664;2023-08-12T10:15:01;97075.72;;;28.41;48.94
25130;BME280;13308;50.860;13.664;2023-08-12T10:17:27;97073.75;;;28.25;50.92
25130;BME280;13308;50.860;13.664;2023-08-12T10:19:56;97069.06;;;28.33;49.69
25130;BME280;13308;50.860;13.664;2023-08-12T10:22:29;97074.53;;;28.55;48.75
25130;BME280;13308;50.860;13.664;2023-08-12T10:24:54;97068.84;;;28.55;49.55
25130;BME280;13308;50.860;13.664;2023-08-12T10:27:20;97065.03;;;28.23;51.12
25130;BME280;13308;50.860;13.664;2023-08-12T10:29:49;97068.47;;;28.10;51.27
25130;BME280;13308;50.860;13.664;2023-08-12T10:32:14;97064.53;;;28.19;50.52
25130;BME280;13308;50.860;13.664;2023-08-12T10:34:40;97066.66;;;28.42;49.94
25130;BME280;13308;50.860;13.664;2023-08-12T10:37:05;97061.84;;;28.02;50.63
25130;BME280;13308;50.860;13.664;2023-08-12T10:39:32;97064.06;;;27.85;51.06
25130;BME280;13308;50.860;13.664;2023-08-12T10:41:58;97062.72;;;28.21;50.36
25130;BME280;13308;50.860;13.664;2023-08-12T10:44:37;97058.09;;;27.89;51.51
25130;BME280;13308;50.860;13.664;2023-08-12T10:47:08;97058.00;;;28.00;51.04
25130;BME280;13308;50.860;13.664;2023-08-12T10:49:44;97054.00;;;28.14;50.41
25130;BME280;13308;50.860;13.664;2023-08-12T10:52:32;97058.41;;;28.15;49.87
25130;BME280;13308;50.860;13.664;2023-08-12T10:55:18;97047.81;;;27.86;50.46
25130;BME280;13308;50.860;13.664;2023-08-12T10:57:45;97051.16;;;27.49;51.79
25130;BME280;13308;50.860;13.664;2023-08-12T11:00:14;97038.47;;;27.21;51.97
25130;BME280;13308;50.860;13.664;2023-08-12T11:02:44;97031.03;;;27.53;53.42
25130;BME280;13308;50.860;13.664;2023-08-12T11:05:10;97034.50;;;27.70;52.61
25130;BME280;13308;50.860;13.664;2023-08-12T11:07:46;97023.47;;;27.96;53.13
25130;BME280;13308;50.860;13.664;2023-08-12T11:10:19;97023.78;;;27.92;53.38
25130;BME280;13308;50.860;13.664;2023-08-12T11:15:18;97027.53;;;28.06;53.98
25130;BME280;13308;50.860;13.664;2023-08-12T11:17:46;97023.88;;;28.11;51.63
25130;BME280;13308;50.860;13.664;2023-08-12T11:20:13;97031.31;;;27.49;53.44
25130;BME280;13308;50.860;13.664;2023-08-12T11:22:40;97019.09;;;27.60;53.16
25130;BME280;13308;50.860;13.664;2023-08-12T11:25:07;97026.22;;;27.42;54.14
25130;BME280;13308;50.860;13.664;2023-08-12T11:30:02;97017.56;;;27.59;53.07
25130;BME280;13308;50.860;13.664;2023-08-12T11:32:28;97015.28;;;27.17;54.20
25130;BME280;13308;50.860;13.664;2023-08-12T11:34:53;97006.91;;;26.89;55.56
25130;BME280;13308;50.860;13.664;2023-08-12T11:37:19;97010.88;;;27.21;56.22
25130;BME280;13308;50.860;13.664;2023-08-12T11:39:44;97011.41;;;27.55;54.78
25130;BME280;13308;50.860;13.664;2023-08-12T11:42:09;97014.13;;;27.36;55.01
25130;BME280;13308;50.860;13.664;2023-08-12T11:44:35;97009.56;;;27.63;55.83
25130;BME280;13308;50.860;13.664;2023-08-12T11:47:00;97014.97;;;27.61;55.34
25130;BME280;13308;50.860;13.664;2023-08-12T11:49:25;97008.47;;;28.01;56.00
25130;BME280;13308;50.860;13.664;2023-08-12T11:51:51;97002.22;;;28.08;55.25
25130;BME280;13308;50.860;13.664;2023-08-12T11:54:16;96998.56;;;28.13;53.85
25130;BME280;13308;50.860;13.664;2023-08-12T11:56:42;97002.47;;;28.34;55.61
25130;BME280;13308;50.860;13.664;2023-08-12T11:59:08;96998.22;;;27.98;55.00
25130;BME280;13308;50.860;13.664;2023-08-12T12:01:33;97000.00;;;27.66;55.76
25130;BME280;13308;50.860;13.664;2023-08-12T12:04:02;97004.84;;;27.71;56.92
25130;BME280;13308;50.860;13.664;2023-08-12T12:06:37;97002.09;;;27.95;56.32
25130;BME280;13308;50.860;13.664;2023-08-12T12:09:07;97008.00;;;27.97;56.52
25130;BME280;13308;50.860;13.664;2023-08-12T12:11:35;97003.53;;;28.31;55.30
25130;BME280;13308;50.860;13.664;2023-08-12T12:14:07;96997.84;;;28.79;54.14
25130;BME280;13308;50.860;13.664;2023-08-12T12:16:42;97005.47;;;28.65;54.67
25130;BME280;13308;50.860;13.664;2023-08-12T12:19:16;97004.94;;;29.09;53.68
25130;BME280;13308;50.860;13.664;2023-08-12T12:21:42;97011.69;;;29.62;51.04
25130;BME280;13308;50.860;13.664;2023-08-12T12:24:10;96998.66;;;29.98;52.51
25130;BME280;13308;50.860;13.664;2023-08-12T12:26:36;96995.38;;;29.94;49.53
25130;BME280;13308;50.860;13.664;2023-08-12T12:29:05;96996.16;;;30.07;51.00
25130;BME280;13308;50.860;13.664;2023-08-12T12:31:32;97005.78;;;30.88;48.28
25130;BME280;13308;50.860;13.664;2023-08-12T12:33:57;97004.16;;;31.39;50.79
25130;BME280;13308;50.860;13.664;2023-08-12T12:36:23;97001.00;;;31.63;47.27
25130;BME280;13308;50.860;13.664;2023-08-12T12:38:48;96998.34;;;31.65;48.36
25130;BME280;13308;50.860;13.664;2023-08-12T12:41:13;97000.63;;;31.46;46.71
25130;BME280;13308;50.860;13.664;2023-08-12T12:43:39;97008.84;;;30.64;48.41
25130;BME280;13308;50.860;13.664;2023-08-12T12:46:05;96991.94;;;30.14;48.29
25130;BME280;13308;50.860;13.664;2023-08-12T12:48:30;96993.88;;;30.06;47.33
25130;BME280;13308;50.860;13.664;2023-08-12T12:50:55;96991.72;;;30.12;47.61
25130;BME280;13308;50.860;13.664;2023-08-12T12:53:21;96979.81;;;29.82;48.18
25130;BME280;13308;50.860;13.664;2023-08-12T12:55:46;96980.25;;;29.86;48.58
25130;BME280;13308;50.860;13.664;2023-08-12T12:58:11;96979.50;;;29.35;48.43
25130;BME280;13308;50.860;13.664;2023-08-12T13:00:37;96975.63;;;29.51;49.51
25130;BME280;13308;50.860;13.664;2023-08-12T13:03:02;96961.97;;;28.94;49.82
25130;BME280;13308;50.860;13.664;2023-08-12T13:05:27;96965.00;;;28.83;50.88
25130;BME280;13308;50.860;13.664;2023-08-12T13:07:53;96965.53;;;28.82;50.49
25130;BME280;13308;50.860;13.664;2023-08-12T13:10:18;96955.31;;;28.92;50.00
25130;BME280;13308;50.860;13.664;2023-08-12T13:12:43;96955.06;;;28.95;50.68
25130;BME280;13308;50.860;13.664;2023-08-12T13:15:09;96953.16;;;29.35;51.49
25130;BME280;13308;50.860;13.664;2023-08-12T13:17:34;96953.50;;;29.63;49.40
25130;BME280;13308;50.860;13.664;2023-08-12T13:20:00;96953.22;;;29.79;50.10
25130;BME280;13308;50.860;13.664;2023-08-12T13:22:25;96948.63;;;29.89;49.98
25130;BME280;13308;50.860;13.664;2023-08-12T13:24:50;96949.78;;;30.12;49.35
25130;BME280;13308;50.860;13.664;2023-08-12T13:27:16;96940.81;;;30.60;47.50
25130;BME280;13308;50.860;13.664;2023-08-12T13:29:42;96948.56;;;30.86;48.57
25130;BME280;13308;50.860;13.664;2023-08-12T13:32:08;96939.38;;;30.80;50.33
25130;BME280;13308;50.860;13.664;2023-08-12T13:34:33;96940.06;;;30.60;48.32
25130;BME280;13308;50.860;13.664;2023-08-12T13:36:58;96936.72;;;30.95;47.47
25130;BME280;13308;50.860;13.664;2023-08-12T13:39:24;96937.56;;;31.03;46.76
25130;BME280;13308;50.860;13.664;2023-08-12T13:41:49;96938.09;;;30.55;47.65
25130;BME280;13308;50.860;13.664;2023-08-12T13:44:14;96925.81;;;30.21;47.92
25130;BME280;13308;50.860;13.664;2023-08-12T13:46:40;96933.25;;;30.11;49.33
25130;BME280;13308;50.860;13.664;2023-08-12T13:49:05;96927.50;;;29.85;48.87
25130;BME280;13308;50.860;13.664;2023-08-12T13:51:31;96931.69;;;29.97;49.04
25130;BME280;13308;50.860;13.664;2023-08-12T13:53:56;96932.22;;;29.95;50.45
25130;BME280;13308;50.860;13.664;2023-08-12T13:56:21;96936.66;;;30.22;49.93
25130;BME280;13308;50.860;13.664;2023-08-12T13:58:47;96928.91;;;30.36;50.51
25130;BME280;13308;50.860;13.664;2023-08-12T14:01:12;96932.16;;;30.40;49.78
25130;BME280;13308;50.860;13.664;2023-08-12T14:03:37;96932.03;;;30.06;50.40
25130;BME280;13308;50.860;13.664;2023-08-12T14:06:03;96930.66;;;30.26;50.59
25130;BME280;13308;50.860;13.664;2023-08-12T14:08:28;96926.16;;;30.17;50.80
25130;BME280;13308;50.860;13.664;2023-08-12T14:10:54;96931.56;;;30.02;51.73
25130;BME280;13308;50.860;13.664;2023-08-12T14:13:19;96924.72;;;30.50;49.30
25130;BME280;13308;50.860;13.664;2023-08-12T14:15:44;96936.34;;;32.06;45.63
25130;BME280;13308;50.860;13.664;2023-08-12T14:18:09;96926.69;;;31.89;45.85
25130;BME280;13308;50.860;13.664;2023-08-12T14:20:35;96928.53;;;30.78;49.29
25130;BME280;13308;50.860;13.664;2023-08-12T14:23:00;96916.91;;;29.85;50.94
25130;BME280;13308;50.860;13.664;2023-08-12T14:25:25;96919.84;;;29.93;50.13
25130;BME280;13308;50.860;13.664;2023-08-12T14:27:51;96915.47;;;29.47;50.14
25130;BME280;13308;50.860;13.664;2023-08-12T14:30:23;96913.03;;;29.38;51.17
25130;BME280;13308;50.860;13.664;2023-08-12T14:32:49;96907.19;;;29.94;50.26
25130;BME280;13308;50.860;13.664;2023-08-12T14:35:14;96911.81;;;29.65;51.88
25130;BME280;13308;50.860;13.664;2023-08-12T14:37:39;96910.81;;;29.63;50.58
25130;BME280;13308;50.860;13.664;2023-08-12T14:40:05;96904.88;;;29.92;50.25
25130;BME280;13308;50.860;13.664;2023-08-12T14:42:31;96901.63;;;30.27;49.93
25130;BME280;13308;50.860;13.664;2023-08-12T14:44:56;96899.72;;;30.69;51.16
25130;BME280;13308;50.860;13.664;2023-08-12T14:47:22;96911.66;;;31.27;48.02
25130;BME280;13308;50.860;13.664;2023-08-12T14:49:47;96904.13;;;31.78;46.00
25130;BME280;13308;50.860;13.664;2023-08-12T14:52:18;96905.84;;;31.19;48.89
25130;BME280;13308;50.860;13.664;2023-08-12T14:54:47;96901.50;;;31.39;46.45
25130;BME280;13308;50.860;13.664;2023-08-12T14:57:12;96893.84;;;31.34;48.32
25130;BME280;13308;50.860;13.664;2023-08-12T14:59:38;96888.00;;;32.72;48.08
25130;BME280;13308;50.860;13.664;2023-08-12T15:02:04;96882.00;;;33.78;44.56
25130;BME280;13308;50.860;13.664;2023-08-12T15:04:29;96886.47;;;34.64;40.85
25130;BME280;13308;50.860;13.664;2023-08-12T15:06:54;96883.91;;;34.13;43.34
25130;BME280;13308;50.860;13.664;2023-08-12T15:09:20;96887.78;;;34.78;40.82
25130;BME280;13308;50.860;13.664;2023-08-12T15:11:45;96865.75;;;33.96;41.72
25130;BME280;13308;50.860;13.664;2023-08-12T15:14:10;96873.00;;;33.52;42.85
25130;BME280;13308;50.860;13.664;2023-08-12T15:16:36;96876.69;;;32.94;42.77
25130;BME280;13308;50.860;13.664;2023-08-12T15:19:02;96877.88;;;32.00;44.67
25130;BME280;13308;50.860;13.664;2023-08-12T15:21:28;96880.03;;;31.66;45.68
25130;BME280;13308;50.860;13.664;2023-08-12T15:23:54;96872.22;;;31.05;46.35
25130;BME280;13308;50.860;13.664;2023-08-12T15:26:19;96877.16;;;31.79;44.63
25130;BME280;13308;50.860;13.664;2023-08-12T15:28:44;96873.22;;;31.69;45.81
25130;BME280;13308;50.860;13.664;2023-08-12T15:31:13;96867.97;;;31.32;45.42
25130;BME280;13308;50.860;13.664;2023-08-12T15:33:38;96871.25;;;31.02;47.76
25130;BME280;13308;50.860;13.664;2023-08-12T15:36:04;96869.56;;;30.86;46.83
25130;BME280;13308;50.860;13.664;2023-08-12T15:38:29;96866.97;;;30.75;48.47
25130;BME280;13308;50.860;13.664;2023-08-12T15:40:55;96864.16;;;30.36;48.60
25130;BME280;13308;50.860;13.664;2023-08-12T15:43:20;96866.66;;;30.53;48.79
25130;BME280;13308;50.860;13.664;2023-08-12T15:45:45;96858.88;;;30.66;48.95
25130;BME280;13308;50.860;13.664;2023-08-12T15:48:11;96861.66;;;30.20;49.78
25130;BME280;13308;50.860;13.664;2023-08-12T15:50:36;96863.91;;;31.07;48.28
25130;BME280;13308;50.860;13.664;2023-08-12T15:53:03;96864.41;;;31.39;47.85
25130;BME280;13308;50.860;13.664;2023-08-12T15:55:28;96852.44;;;30.66;49.35
25130;BME280;13308;50.860;13.664;2023-08-12T15:57:53;96842.41;;;30.26;49.56
25130;BME280;13308;50.860;13.664;2023-08-12T16:00:19;96842.59;;;29.89;50.90
25130;BME280;13308;50.860;13.664;2023-08-12T16:02:44;96837.56;;;29.69;51.12
25130;BME280;13308;50.860;13.664;2023-08-12T16:05:10;96834.84;;;29.32;52.50
25130;BME280;13308;50.860;13.664;2023-08-12T16:07:35;96846.13;;;28.87;53.26
25130;BME280;13308;50.860;13.664;2023-08-12T16:10:01;96845.88;;;28.54;55.12
25130;BME280;13308;50.860;13.664;2023-08-12T16:12:26;96845.06;;;28.35;54.99
25130;BME280;13308;50.860;13.664;2023-08-12T16:14:52;96837.69;;;28.08;56.11
25130;BME280;13308;50.860;13.664;2023-08-12T16:17:17;96844.91;;;28.27;56.03
25130;BME280;13308;50.860;13.664;2023-08-12T16:19:42;96853.94;;;28.26;56.36
25130;BME280;13308;50.860;13.664;2023-08-12T16:22:11;96854.25;;;28.04;57.49
25130;BME280;13308;50.860;13.664;2023-08-12T16:24:37;96843.25;;;27.95;58.24
25130;BME280;13308;50.860;13.664;2023-08-12T16:27:03;96847.47;;;27.88;58.08
25130;BME280;13308;50.860;13.664;2023-08-12T16:29:30;96848.69;;;27.93;58.49
25130;BME280;13308;50.860;13.664;2023-08-12T16:31:56;96850.13;;;27.81;61.21
25130;BME280;13308;50.860;13.664;2023-08-12T16:34:21;96853.06;;;27.70;59.86
25130;BME280;13308;50.860;13.664;2023-08-12T16:36:46;96866.81;;;27.60;61.18
25130;BME280;13308;50.860;13.664;2023-08-12T16:39:12;96871.53;;;27.23;62.20
25130;BME280;13308;50.860;13.664;2023-08-12T16:41:37;96896.06;;;27.15;60.19
25130;BME280;13308;50.860;13.664;2023-08-12T16:44:02;96963.38;;;26.98;63.50
25130;BME280;13308;50.860;13.664;2023-08-12T16:46:28;97019.03;;;24.70;79.93
25130;BME280;13308;50.860;13.664;2023-08-12T16:48:53;97018.66;;;23.42;97.65
25130;BME280;13308;50.860;13.664;2023-08-12T16:51:18;97017.50;;;23.03;100.00
25130;BME280;13308;50.860;13.664;2023-08-12T16:53:44;97021.72;;;22.33;100.00
25130;BME280;13308;50.860;13.664;2023-08-12T16:56:09;97017.03;;;21.90;100.00
25130;BME280;13308;50.860;13.664;2023-08-12T16:58:35;97016.97;;;21.55;100.00
25130;BME280;13308;50.860;13.664;2023-08-12T17:01:00;97013.88;;;21.39;100.00
25130;BME280;13308;50.860;13.664;2023-08-12T17:03:25;97012.34;;;21.38;100.00
25130;BME280;13308;50.860;13.664;2023-08-12T17:05:51;97012.63;;;21.40;100.00
25130;BME280;13308;50.860;13.664;2023-08-12T17:08:16;97015.44;;;21.25;100.00
25130;BME280;13308;50.860;13.664;2023-08-12T17:10:41;97017.97;;;21.23;100.00
25130;BME280;13308;50.860;13.664;2023-08-12T17:13:07;97006.81;;;21.00;100.00
25130;BME280;13308;50.860;13.664;2023-08-12T17:15:32;96994.31;;;20.86;100.00
25130;BME280;13308;50.860;13.664;2023-08-12T17:17:57;96981.34;;;20.74;100.00
25130;BME280;13308;50.860;13.664;2023-08-12T17:20:23;96959.28;;;20.67;100.00
25130;BME280;13308;50.860;13.664;2023-08-12T17:22:48;96958.00;;;20.54;100.00
25130;BME280;13308;50.860;13.664;2023-08-12T17:25:14;96951.72;;;20.44;100.00
25130;BME280;13308;50.860;13.664;2023-08-12T17:27:39;96938.66;;;20.41;100.00
25130;BME280;13308;50.860;13.664;2023-08-12T17:30:05;96920.16;;;20.35;100.00
25130;BME280;13308;50.860;13.664;2023-08-12T17:32:31;96912.66;;;20.26;100.00
25130;BME280;13308;50.860;13.664;2023-08-12T17:34:57;96902.84;;;20.22;100.00
25130;BME280;13308;50.860;13.664;2023-08-12T17:37:22;96900.44;;;20.15;100.00
25130;BME280;13308;50.860;13.664;2023-08-12T17:39:48;96883.38;;;20.04;100.00
25130;BME280;13308;50.860;13.664;2023-08-12T17:42:14;96881.84;;;20.03;100.00
25130;BME280;13308;50.860;13.664;2023-08-12T17:44:39;96875.63;;;19.99;100.00
25130;BME280;13308;50.860;13.664;2023-08-12T17:47:04;96881.41;;;19.95;100.00
25130;BME280;13308;50.860;13.664;2023-08-12T17:49:30;96871.94;;;19.93;100.00
25130;BME280;13308;50.860;13.664;2023-08-12T17:51:55;96857.66;;;19.91;100.00
25130;BME280;13308;50.860;13.664;2023-08-12T17:54:20;96861.91;;;19.86;100.00
25130;BME280;13308;50.860;13.664;2023-08-12T17:56:46;96852.25;;;19.87;100.00
25130;BME280;13308;50.860;13.664;2023-08-12T17:59:11;96855.50;;;19.86;100.00
25130;BME280;13308;50.860;13.664;2023-08-12T18:01:36;96860.19;;;19.89;100.00
25130;BME280;13308;50.860;13.664;2023-08-12T18:04:02;96847.44;;;19.88;100.00
25130;BME280;13308;50.860;13.664;2023-08-12T18:06:27;96852.06;;;19.91;100.00
25130;BME280;13308;50.860;13.664;2023-08-12T18:08:52;96864.41;;;19.84;100.00
25130;BME280;13308;50.860;13.664;2023-08-12T18:11:18;96855.50;;;19.86;100.00
25130;BME280;13308;50.860;13.664;2023-08-12T18:13:43;96842.13;;;19.90;100.00
25130;BME280;13308;50.860;13.664;2023-08-12T18:16:09;96848.19;;;19.88;100.00